createdAt,value
2019-02-18T00:01:36.106Z,100.00
2019-02-18T00:04:25.200Z,100.00
2019-02-18T00:07:15.002Z,100.00
2019-02-18T00:10:04.882Z,100.00
2019-02-18T00:12:54.304Z,100.00
2019-02-18T00:15:43.611Z,100.00
2019-02-18T00:18:33.281Z,100.00
2019-02-18T00:21:22.693Z,100.00
2019-02-18T00:24:11.847Z,100.00
2019-02-18T00:27:01.169Z,100.00
2019-02-18T00:29:50.924Z,100.00
2019-02-18T00:32:40.187Z,99.90
2019-02-18T00:35:29.440Z,100.00
2019-02-18T00:38:18.868Z,100.00
2019-02-18T00:41:10.822Z,98.94
2019-02-18T00:44:01.683Z,99.20
2019-02-18T00:46:54.887Z,99.30
2019-02-18T00:49:44.304Z,99.85
2019-02-18T00:52:35.398Z,100.00
2019-02-18T00:55:24.908Z,100.00
2019-02-18T00:58:13.912Z,100.00
2019-02-18T01:01:02.876Z,99.18
2019-02-18T01:03:52.553Z,100.00
2019-02-18T01:06:41.833Z,100.00
2019-02-18T01:09:31.297Z,100.00
2019-02-18T01:12:20.559Z,100.00
2019-02-18T01:15:10.755Z,100.00
2019-02-18T01:18:00.373Z,100.00
2019-02-18T01:20:49.686Z,100.00
2019-02-18T01:23:39.311Z,100.00
2019-02-18T01:26:28.876Z,100.00
2019-02-18T01:29:18.239Z,100.00
2019-02-18T01:32:09.639Z,100.00
2019-02-18T01:34:58.890Z,100.00
2019-02-18T01:37:48.023Z,100.00
2019-02-18T01:40:37.330Z,100.00
2019-02-18T01:43:27.066Z,100.00
2019-02-18T01:46:16.771Z,100.00
2019-02-18T01:49:06.221Z,100.00
2019-02-18T01:51:55.693Z,100.00
2019-02-18T01:54:45.266Z,100.00
2019-02-18T01:57:34.661Z,100.00
2019-02-18T02:00:24.683Z,99.61
2019-02-18T02:03:17.252Z,99.33
2019-02-18T02:06:06.555Z,100.00
2019-02-18T02:08:56.091Z,100.00
2019-02-18T02:11:45.513Z,100.00
2019-02-18T02:14:34.851Z,100.00
2019-02-18T02:17:23.955Z,100.00
2019-02-18T02:20:13.453Z,100.00
2019-02-18T02:23:05.709Z,99.16
2019-02-18T02:25:55.333Z,99.66
2019-02-18T02:28:44.945Z,99.92
2019-02-18T02:31:34.687Z,100.00
2019-02-18T02:34:24.459Z,100.00
2019-02-18T02:37:14.059Z,100.00
2019-02-18T02:40:03.919Z,100.00
2019-02-18T02:42:53.591Z,100.00
2019-02-18T02:45:42.986Z,100.00
2019-02-18T02:48:32.507Z,100.00
2019-02-18T02:51:22.219Z,100.00
2019-02-18T02:54:12.365Z,100.00
2019-02-18T02:57:01.919Z,100.00
2019-02-18T02:59:51.269Z,100.00
2019-02-18T03:02:41.102Z,100.00
2019-02-18T03:05:30.703Z,100.00
2019-02-18T03:08:21.021Z,100.00
2019-02-18T03:11:10.442Z,100.00
2019-02-18T03:13:59.751Z,100.00
2019-02-18T03:16:49.789Z,100.00
2019-02-18T03:19:39.063Z,99.30
2019-02-18T03:22:28.589Z,99.68
2019-02-18T03:25:26.669Z,100.00
2019-02-18T03:28:47.527Z,100.00
2019-02-18T03:31:36.809Z,100.00
2019-02-18T03:34:30.169Z,100.00
2019-02-18T03:37:19.482Z,100.00
2019-02-18T03:40:08.851Z,100.00
2019-02-18T03:42:58.141Z,100.00
2019-02-18T03:45:47.561Z,100.00
2019-02-18T03:48:38.380Z,100.00
2019-02-18T03:51:27.215Z,100.00
2019-02-18T03:54:16.538Z,100.00
2019-02-18T03:57:05.995Z,100.00
2019-02-18T03:59:55.582Z,100.00
2019-02-18T04:02:45.249Z,100.00
2019-02-18T04:05:34.841Z,100.00
2019-02-18T04:08:24.282Z,100.00
2019-02-18T04:11:15.477Z,100.00
2019-02-18T04:14:07.376Z,100.00
2019-02-18T04:16:56.626Z,100.00
2019-02-18T04:19:45.988Z,100.00
2019-02-18T04:22:35.291Z,99.66
2019-02-18T04:25:24.082Z,99.85
2019-02-18T04:28:13.258Z,99.80
2019-02-18T04:31:07.978Z,100.00
2019-02-18T04:33:57.436Z,100.00
2019-02-18T04:36:46.889Z,100.00
2019-02-18T04:39:35.916Z,100.00
2019-02-18T04:42:25.460Z,100.00
2019-02-18T04:45:14.712Z,100.00
2019-02-18T04:48:04.002Z,100.00
2019-02-18T04:50:53.405Z,98.49
2019-02-18T04:53:42.799Z,95.47
2019-02-18T04:56:32.125Z,95.67
2019-02-18T04:59:21.698Z,97.32
2019-02-18T05:02:10.997Z,99.04
2019-02-18T05:05:00.342Z,100.00
2019-02-18T05:07:49.631Z,100.00
2019-02-18T05:10:39.248Z,100.00
2019-02-18T05:13:28.862Z,100.00
2019-02-18T05:16:18.128Z,100.00
2019-02-18T05:19:07.213Z,100.00
2019-02-18T05:21:56.989Z,100.00
2019-02-18T05:24:46.330Z,100.00
2019-02-18T05:27:35.766Z,100.00
2019-02-18T05:30:24.811Z,100.00
2019-02-18T05:33:13.926Z,100.00
2019-02-18T05:36:03.476Z,100.00
2019-02-18T05:38:52.844Z,100.00
2019-02-18T05:41:42.774Z,100.00
2019-02-18T05:44:31.981Z,100.00
2019-02-18T05:47:21.388Z,98.29
2019-02-18T05:50:10.922Z,97.23
2019-02-18T05:53:14.792Z,99.45
2019-02-18T05:56:02.001Z,100.00
2019-02-18T05:58:51.509Z,100.00
2019-02-18T06:01:40.850Z,100.00
2019-02-18T06:04:29.754Z,100.00
2019-02-18T06:07:19.333Z,100.00
2019-02-18T06:10:09.220Z,100.00
2019-02-18T06:12:58.278Z,100.00
2019-02-18T06:15:47.735Z,100.00
2019-02-18T06:18:36.631Z,100.00
2019-02-18T06:21:26.237Z,100.00
2019-02-18T06:24:15.532Z,99.76
2019-02-18T06:27:05.194Z,98.67
2019-02-18T06:29:54.344Z,96.72
2019-02-18T06:32:43.712Z,92.02
2019-02-18T06:35:33.226Z,91.24
2019-02-18T06:38:22.533Z,89.10
2019-02-18T06:41:11.458Z,87.19
2019-02-18T06:44:00.576Z,86.55
2019-02-18T06:46:57.651Z,84.43
2019-02-18T06:49:46.968Z,87.03
2019-02-18T06:52:36.431Z,88.40
2019-02-18T06:55:26.744Z,90.23
2019-02-18T06:58:28.006Z,91.79
2019-02-18T07:01:31.798Z,92.49
2019-02-18T07:04:33.822Z,94.25
2019-02-18T07:07:44.539Z,94.28
2019-02-18T07:11:11.458Z,92.98
2019-02-18T07:14:00.254Z,93.49
2019-02-18T07:16:49.581Z,92.52
2019-02-18T07:19:38.213Z,90.52
2019-02-18T07:22:27.884Z,87.47
2019-02-18T07:25:17.693Z,86.95
2019-02-18T07:28:06.403Z,87.11
2019-02-18T07:30:55.437Z,87.37
2019-02-18T07:33:44.497Z,87.55
2019-02-18T07:36:35.091Z,86.90
2019-02-18T07:39:24.550Z,85.92
2019-02-18T07:42:14.322Z,84.76
2019-02-18T07:45:03.711Z,85.24
2019-02-18T07:47:53.304Z,83.97
2019-02-18T07:50:42.521Z,82.25
2019-02-18T07:53:32.117Z,81.58
2019-02-18T07:56:24.282Z,80.98
2019-02-18T07:59:13.916Z,81.19
2019-02-18T08:02:02.832Z,79.90
2019-02-18T08:04:52.407Z,80.06
2019-02-18T08:07:41.680Z,79.71
2019-02-18T08:10:36.914Z,81.96
2019-02-18T08:13:26.849Z,80.41
2019-02-18T08:16:16.450Z,79.63
2019-02-18T08:19:05.871Z,78.86
2019-02-18T08:21:55.426Z,78.85
2019-02-18T08:24:44.810Z,77.70
2019-02-18T08:27:34.158Z,77.24
2019-02-18T08:30:23.645Z,75.74
2019-02-18T08:33:13.316Z,75.57
2019-02-18T08:36:02.577Z,75.26
2019-02-18T08:38:52.144Z,74.25
2019-02-18T08:41:41.420Z,73.47
2019-02-18T08:44:31.100Z,73.11
2019-02-18T08:47:20.429Z,70.82
2019-02-18T08:50:11.497Z,72.00
2019-02-18T08:53:00.711Z,70.40
2019-02-18T08:55:49.548Z,70.75
2019-02-18T08:58:39.288Z,69.31
2019-02-18T09:01:28.206Z,69.25
2019-02-18T09:04:17.441Z,67.80
2019-02-18T09:07:07.221Z,67.90
2019-02-18T09:09:56.612Z,66.43
2019-02-18T09:12:45.786Z,66.04
2019-02-18T09:15:35.317Z,65.29
2019-02-18T09:18:24.925Z,64.22
2019-02-18T09:21:14.195Z,65.04
2019-02-18T09:24:25.240Z,62.16
2019-02-18T09:27:17.506Z,62.48
2019-02-18T09:30:07.471Z,61.22
2019-02-18T09:32:56.860Z,58.19
2019-02-18T09:35:46.101Z,56.58
2019-02-18T09:38:35.689Z,59.68
2019-02-18T09:41:25.274Z,59.83
2019-02-18T09:44:14.567Z,59.92
2019-02-18T09:47:03.618Z,58.50
2019-02-18T09:49:52.838Z,56.68
2019-02-18T09:52:42.561Z,54.91
2019-02-18T09:55:31.765Z,56.76
2019-02-18T09:58:20.940Z,56.58
2019-02-18T10:01:10.141Z,55.47
2019-02-18T10:03:59.710Z,54.88
2019-02-18T10:06:49.007Z,52.46
2019-02-18T10:09:38.447Z,53.14
2019-02-18T10:12:27.868Z,52.13
2019-02-18T10:15:17.541Z,50.15
2019-02-18T10:18:06.725Z,51.70
2019-02-18T10:20:55.789Z,51.56
2019-02-18T10:23:45.339Z,48.36
2019-02-18T10:26:34.989Z,49.45
2019-02-18T10:29:24.673Z,48.68
2019-02-18T10:32:14.177Z,48.54
2019-02-18T10:35:03.449Z,49.71
2019-02-18T10:37:55.222Z,48.54
2019-02-18T10:40:42.890Z,45.62
2019-02-18T10:43:32.889Z,46.63
2019-02-18T10:46:22.642Z,43.39
2019-02-18T10:49:19.357Z,43.96
2019-02-18T10:52:02.381Z,39.82
2019-02-18T10:54:51.543Z,43.40
2019-02-18T10:57:40.770Z,42.19
2019-02-18T11:00:29.843Z,41.86
2019-02-18T11:03:19.075Z,43.53
2019-02-18T11:06:09.333Z,42.00
2019-02-18T11:08:59.059Z,41.88
2019-02-18T11:11:48.639Z,42.44
2019-02-18T11:14:37.943Z,41.49
2019-02-18T11:17:27.352Z,42.28
2019-02-18T11:20:16.364Z,42.78
2019-02-18T11:23:06.042Z,42.18
2019-02-18T11:25:55.387Z,42.18
2019-02-18T11:28:44.886Z,41.43
2019-02-18T11:31:33.951Z,40.99
2019-02-18T11:34:23.662Z,41.77
2019-02-18T11:37:13.886Z,41.36
2019-02-18T11:40:03.196Z,40.25
2019-02-18T11:42:52.455Z,39.93
2019-02-18T11:45:42.046Z,38.34
2019-02-18T11:48:31.401Z,38.47
2019-02-18T11:51:20.979Z,39.05
2019-02-18T11:54:10.016Z,37.29
2019-02-18T11:56:59.363Z,37.30
2019-02-18T11:59:48.501Z,35.38
2019-02-18T12:02:37.911Z,35.60
2019-02-18T12:05:27.307Z,35.97
2019-02-18T12:08:16.487Z,35.23
2019-02-18T12:11:05.749Z,37.13
2019-02-18T12:13:54.616Z,35.12
2019-02-18T12:16:44.026Z,35.18
2019-02-18T12:19:33.806Z,37.89
2019-02-18T12:22:23.559Z,36.33
2019-02-18T12:25:13.501Z,36.76
2019-02-18T12:28:02.981Z,36.23
2019-02-18T12:30:52.582Z,36.60
2019-02-18T12:33:41.856Z,36.27
2019-02-18T12:36:31.001Z,35.73
2019-02-18T12:39:22.638Z,35.63
2019-02-18T12:42:11.708Z,38.04
2019-02-18T12:45:01.273Z,35.96
2019-02-18T12:47:50.435Z,35.32
2019-02-18T12:50:39.771Z,35.49
2019-02-18T12:53:29.177Z,35.27
2019-02-18T12:56:18.457Z,33.93
2019-02-18T12:59:08.510Z,33.33
2019-02-18T13:01:57.876Z,33.71
2019-02-18T13:04:46.984Z,34.31
2019-02-18T13:07:37.466Z,32.33
2019-02-18T13:10:34.666Z,30.59
2019-02-18T13:13:17.254Z,30.87
2019-02-18T13:16:06.372Z,31.51
2019-02-18T13:18:55.508Z,32.21
2019-02-18T13:21:44.587Z,32.63
2019-02-18T13:24:33.882Z,31.90
2019-02-18T13:27:23.451Z,32.51
2019-02-18T13:30:14.466Z,31.41
2019-02-18T13:33:04.077Z,30.34
2019-02-18T13:35:53.370Z,28.90
2019-02-18T13:38:42.901Z,28.39
2019-02-18T13:41:32.269Z,26.58
2019-02-18T13:44:21.413Z,25.84
2019-02-18T13:47:11.022Z,25.06
2019-02-18T13:50:00.566Z,24.54
2019-02-18T13:52:49.888Z,24.80
2019-02-18T13:55:42.060Z,23.96
2019-02-18T13:58:13.068Z,24.22
2019-02-18T14:00:43.929Z,25.12
2019-02-18T14:03:14.826Z,25.90
2019-02-18T14:05:46.037Z,26.32
2019-02-18T14:08:17.026Z,25.26
2019-02-18T14:10:48.494Z,25.84
2019-02-18T14:13:19.461Z,25.91
2019-02-18T14:15:50.320Z,25.34
2019-02-18T14:18:21.793Z,24.42
2019-02-18T14:20:52.649Z,26.97
2019-02-18T14:23:23.501Z,26.56
2019-02-18T14:25:54.452Z,25.83
2019-02-18T14:28:25.323Z,26.79
2019-02-18T14:30:56.260Z,29.00
2019-02-18T14:33:27.206Z,31.57
2019-02-18T14:35:58.073Z,32.53
2019-02-18T14:38:28.936Z,33.60
2019-02-18T14:41:00.218Z,32.11
2019-02-18T14:43:31.084Z,32.65
2019-02-18T14:46:01.940Z,33.08
2019-02-18T14:48:32.843Z,33.85
2019-02-18T14:51:03.920Z,34.05
2019-02-18T14:53:34.791Z,35.66
2019-02-18T14:56:07.604Z,36.14
2019-02-18T14:58:38.519Z,37.60
2019-02-18T15:01:10.254Z,38.50
2019-02-18T15:03:43.056Z,39.21
2019-02-18T15:06:13.935Z,39.35
2019-02-18T15:08:45.860Z,39.15
2019-02-18T15:11:16.732Z,40.12
2019-02-18T15:13:50.440Z,40.40
2019-02-18T15:16:24.412Z,41.26
2019-02-18T15:18:55.270Z,41.52
2019-02-18T15:21:26.139Z,43.31
2019-02-18T15:24:00.003Z,43.23
2019-02-18T15:26:31.349Z,44.00
2019-02-18T15:29:02.339Z,43.86
2019-02-18T15:31:34.090Z,45.04
2019-02-18T15:34:06.178Z,45.12
2019-02-18T15:36:37.136Z,45.40
2019-02-18T15:39:08.222Z,45.31
2019-02-18T15:41:39.162Z,45.48
2019-02-18T15:44:10.269Z,47.28
2019-02-18T15:46:41.125Z,47.75
2019-02-18T15:49:12.074Z,47.41
2019-02-18T15:51:43.289Z,47.54
2019-02-18T15:54:14.859Z,50.04
2019-02-18T15:56:45.719Z,49.95
2019-02-18T15:59:16.640Z,49.18
2019-02-18T16:01:47.543Z,49.66
2019-02-18T16:04:18.464Z,48.56
2019-02-18T16:06:49.446Z,48.19
2019-02-18T16:09:21.275Z,48.33
2019-02-18T16:11:52.127Z,48.93
2019-02-18T16:14:23.109Z,48.31
2019-02-18T16:16:53.988Z,49.41
2019-02-18T16:19:24.850Z,49.09
2019-02-18T16:21:55.968Z,49.42
2019-02-18T16:24:26.844Z,49.34
2019-02-18T16:27:01.376Z,49.63
2019-02-18T16:29:32.375Z,49.37
2019-02-18T16:32:03.386Z,49.22
2019-02-18T16:34:34.386Z,49.20
2019-02-18T16:37:05.736Z,49.19
2019-02-18T16:39:36.674Z,49.53
2019-02-18T16:42:08.219Z,53.58
2019-02-18T16:44:39.234Z,55.32
2019-02-18T16:47:10.280Z,56.66
2019-02-18T16:49:41.303Z,57.72
2019-02-18T16:52:15.587Z,59.31
2019-02-18T16:54:46.516Z,61.78
2019-02-18T16:57:17.604Z,62.77
2019-02-18T16:59:48.583Z,64.04
2019-02-18T17:02:19.578Z,63.40
2019-02-18T17:04:50.687Z,63.94
2019-02-18T17:07:21.566Z,65.04
2019-02-18T17:09:53.694Z,65.56
2019-02-18T17:12:24.962Z,67.13
2019-02-18T17:14:55.881Z,68.12
2019-02-18T17:17:27.318Z,68.54
2019-02-18T17:19:58.372Z,68.13
2019-02-18T17:22:29.235Z,68.87
2019-02-18T17:25:00.159Z,68.85
2019-02-18T17:27:31.570Z,68.37
2019-02-18T17:30:02.697Z,70.00
2019-02-18T17:32:34.140Z,70.07
2019-02-18T17:35:05.266Z,70.36
2019-02-18T17:37:36.153Z,70.57
2019-02-18T17:40:07.708Z,71.46
2019-02-18T17:42:38.985Z,71.31
2019-02-18T17:45:11.802Z,72.52
2019-02-18T17:47:42.863Z,74.27
2019-02-18T17:50:14.820Z,75.84
2019-02-18T17:52:46.527Z,77.01
2019-02-18T17:55:18.069Z,76.97
2019-02-18T17:57:49.194Z,77.94
2019-02-18T18:00:22.796Z,79.13
2019-02-18T18:02:54.102Z,79.75
2019-02-18T18:05:24.990Z,79.41
2019-02-18T18:07:55.975Z,79.04
2019-02-18T18:10:27.868Z,79.84
2019-02-18T18:12:59.342Z,80.20
2019-02-18T18:15:30.226Z,80.49
2019-02-18T18:18:01.399Z,81.61
2019-02-18T18:20:35.032Z,81.53
2019-02-18T18:23:06.394Z,81.11
2019-02-18T18:25:37.709Z,80.52
2019-02-18T18:28:10.976Z,80.82
2019-02-18T18:30:42.319Z,81.58
2019-02-18T18:33:13.414Z,82.68
2019-02-18T18:35:45.300Z,82.24
2019-02-18T18:38:18.872Z,81.97
2019-02-18T18:40:50.015Z,83.74
2019-02-18T18:43:22.316Z,79.82
2019-02-18T18:45:57.407Z,79.30
2019-02-18T18:48:28.474Z,79.46
2019-02-18T18:50:59.900Z,78.36
2019-02-18T18:53:31.686Z,79.23
2019-02-18T18:56:07.981Z,81.53
2019-02-18T18:58:39.164Z,80.93
2019-02-18T19:01:11.320Z,80.76
2019-02-18T19:03:42.665Z,82.01
2019-02-18T19:06:14.170Z,83.20
2019-02-18T19:08:49.303Z,82.70
2019-02-18T19:11:21.753Z,84.93
2019-02-18T19:13:53.324Z,86.02
2019-02-18T19:16:33.971Z,87.13
2019-02-18T19:19:06.140Z,86.82
2019-02-18T19:21:42.410Z,86.84
2019-02-18T19:24:19.896Z,86.82
2019-02-18T19:27:01.274Z,86.03
2019-02-18T19:29:43.444Z,86.41
2019-02-18T19:32:17.836Z,88.62
2019-02-18T19:34:52.370Z,87.68
2019-02-18T19:37:27.094Z,86.68
2019-02-18T19:39:58.045Z,86.33
2019-02-18T19:42:29.139Z,88.63
2019-02-18T19:45:00.414Z,89.73
2019-02-18T19:47:32.469Z,91.16
2019-02-18T19:50:03.803Z,93.71
2019-02-18T19:52:38.590Z,94.16
2019-02-18T19:55:10.026Z,93.92
2019-02-18T19:57:41.029Z,94.08
2019-02-18T20:00:14.451Z,92.96
2019-02-18T20:02:45.529Z,92.21
2019-02-18T20:05:20.933Z,93.00
2019-02-18T20:07:53.208Z,94.46
2019-02-18T20:10:24.431Z,95.33
2019-02-18T20:12:55.865Z,95.99
2019-02-18T20:15:29.802Z,95.60
2019-02-18T20:18:02.362Z,96.07
2019-02-18T20:20:33.386Z,96.26
2019-02-18T20:23:04.656Z,95.83
2019-02-18T20:25:35.926Z,96.08
2019-02-18T20:28:09.635Z,96.40
2019-02-18T20:30:40.652Z,95.84
2019-02-18T20:33:11.940Z,95.43
2019-02-18T20:35:43.459Z,94.48
2019-02-18T20:38:14.763Z,94.92
2019-02-18T20:40:45.927Z,95.14
2019-02-18T20:43:17.328Z,94.56
2019-02-18T20:45:48.352Z,94.51
2019-02-18T20:48:19.414Z,94.65
2019-02-18T20:50:50.343Z,95.39
2019-02-18T20:53:21.218Z,94.97
2019-02-18T20:55:52.089Z,94.43
2019-02-18T20:58:23.484Z,95.00
2019-02-18T21:01:12.923Z,93.82
2019-02-18T21:04:04.630Z,93.54
2019-02-18T21:06:53.269Z,93.82
2019-02-18T21:09:43.116Z,93.81
2019-02-18T21:12:32.859Z,92.75
2019-02-18T21:15:22.721Z,92.36
2019-02-18T21:18:12.366Z,92.67
2019-02-18T21:21:05.763Z,93.15
2019-02-18T21:23:55.236Z,93.06
2019-02-18T21:26:44.927Z,95.24
2019-02-18T21:29:34.372Z,96.73
2019-02-18T21:32:25.946Z,97.89
2019-02-18T21:35:14.854Z,97.37
2019-02-18T21:38:04.282Z,97.99
2019-02-18T21:40:53.803Z,99.25
2019-02-18T21:43:42.440Z,97.93
2019-02-18T21:46:31.679Z,98.70
2019-02-18T21:49:22.085Z,99.51
2019-02-18T21:52:11.545Z,99.72
2019-02-18T21:55:00.904Z,99.95
2019-02-18T21:57:49.968Z,100.00
2019-02-18T22:00:39.128Z,100.00
2019-02-18T22:03:28.750Z,100.00
2019-02-18T22:06:17.588Z,100.00
2019-02-18T22:09:08.023Z,100.00
2019-02-18T22:11:56.884Z,100.00
2019-02-18T22:14:46.503Z,99.99
2019-02-18T22:17:35.509Z,100.00
2019-02-18T22:20:24.922Z,100.00
2019-02-18T22:23:14.699Z,99.68
2019-02-18T22:26:04.415Z,99.08
2019-02-18T22:28:53.837Z,99.24
2019-02-18T22:31:43.212Z,100.00
2019-02-18T22:34:32.535Z,100.00
2019-02-18T22:37:21.831Z,100.00
2019-02-18T22:40:12.001Z,100.00
2019-02-18T22:43:01.416Z,100.00
2019-02-18T22:45:50.847Z,100.00
2019-02-18T22:48:40.448Z,100.00
2019-02-18T22:51:34.019Z,100.00
2019-02-18T22:54:23.625Z,100.00
2019-02-18T22:57:13.114Z,100.00
2019-02-18T23:00:02.523Z,100.00
2019-02-18T23:02:52.071Z,100.00
2019-02-18T23:05:41.220Z,100.00
2019-02-18T23:08:30.742Z,100.00
2019-02-18T23:11:20.917Z,100.00
2019-02-18T23:14:11.134Z,99.61
2019-02-18T23:16:59.867Z,98.96
2019-02-18T23:19:51.868Z,98.88
2019-02-18T23:22:41.088Z,97.32
2019-02-18T23:25:30.532Z,98.87
2019-02-18T23:28:19.588Z,100.00
2019-02-18T23:31:08.648Z,100.00
2019-02-18T23:33:58.143Z,100.00
2019-02-18T23:36:47.316Z,100.00
2019-02-18T23:39:36.575Z,100.00
2019-02-18T23:42:25.764Z,100.00
2019-02-18T23:45:15.297Z,100.00
2019-02-18T23:48:04.132Z,100.00
2019-02-18T23:50:54.289Z,100.00
2019-02-18T23:53:43.369Z,100.00
2019-02-18T23:56:32.638Z,100.00
2019-02-18T23:59:22.271Z,100.00
